Аэропорт: Шпаковское. Ставрополь

ICAO: URMT

METAR:
2019/03/26 13:00
URMT 261300Z 14005MPS CAVOK 13/M07 Q1012 R07/010070 NOSIG RMK QFE719
METAR:
2018/10/17 18:00
TAF URMT 171700Z 1718/1803 08005G10MPS 9999 SCT020 
      TEMPO 1718/1721 3100 BR SCT011 BKN020 
     FM172100 10004G09MPS 3100 BR SCT011 BKN020 
      TEMPO 1721/1803 0300 FG BKN002 BKN020